createdAt,value
2023-01-05T00:00:32.428Z,8.6
2023-01-05T00:01:32.406Z,8.6
2023-01-05T00:02:32.580Z,8.6
2023-01-05T00:03:32.435Z,8.6
2023-01-05T00:04:32.581Z,8.7
2023-01-05T00:05:32.401Z,8.6
2023-01-05T00:06:32.416Z,8.6
2023-01-05T00:07:32.408Z,8.6
2023-01-05T00:08:37.079Z,8.6
2023-01-05T00:09:32.397Z,8.7
2023-01-05T00:10:32.417Z,8.7
2023-01-05T00:11:32.444Z,8.7
2023-01-05T00:12:32.411Z,8.7
2023-01-05T00:13:32.422Z,8.7
2023-01-05T00:14:32.436Z,8.7
2023-01-05T00:15:32.416Z,8.8
2023-01-05T00:16:32.512Z,8.8
2023-01-05T00:18:32.437Z,8.8
2023-01-05T00:19:32.430Z,8.8
2023-01-05T00:20:32.428Z,8.8
2023-01-05T00:21:32.419Z,8.8
2023-01-05T00:22:32.449Z,8.8
2023-01-05T00:23:32.437Z,8.7
2023-01-05T00:24:32.423Z,8.8
2023-01-05T00:25:32.437Z,8.9
2023-01-05T00:26:32.451Z,8.8
2023-01-05T00:27:32.421Z,8.9
2023-01-05T00:28:32.411Z,8.9
2023-01-05T00:29:32.400Z,8.9
2023-01-05T00:30:32.427Z,8.9
2023-01-05T00:31:32.520Z,8.9
2023-01-05T00:32:32.407Z,8.8
2023-01-05T00:33:32.424Z,8.8
2023-01-05T00:34:32.409Z,8.8
2023-01-05T00:35:32.452Z,8.7
2023-01-05T00:36:32.428Z,8.8
2023-01-05T00:37:32.425Z,8.8
2023-01-05T00:38:32.425Z,8.7
2023-01-05T00:39:32.461Z,8.8
2023-01-05T00:40:32.414Z,8.7
2023-01-05T00:41:32.422Z,8.8
2023-01-05T00:42:32.435Z,9
2023-01-05T00:43:32.506Z,8.8
2023-01-05T00:44:32.416Z,8.8
2023-01-05T00:45:32.452Z,8.9
2023-01-05T00:46:32.430Z,8.8
2023-01-05T00:47:32.417Z,8.9
2023-01-05T00:48:32.391Z,8.9
2023-01-05T00:49:32.429Z,8.9
2023-01-05T00:50:32.413Z,8.8
2023-01-05T00:51:32.416Z,8.9
2023-01-05T00:53:32.452Z,8.9
2023-01-05T00:54:32.416Z,8.9
2023-01-05T00:55:32.466Z,8.9
2023-01-05T00:56:32.411Z,8.9
2023-01-05T00:57:32.397Z,8.8
2023-01-05T00:58:32.415Z,8.9
2023-01-05T00:59:32.406Z,8.9
2023-01-05T01:00:32.406Z,8.8
2023-01-05T01:01:32.653Z,8.9
2023-01-05T01:02:32.652Z,8.8
2023-01-05T01:03:32.505Z,8.8
2023-01-05T01:04:32.428Z,8.8
2023-01-05T01:05:32.422Z,8.8
2023-01-05T01:06:32.450Z,8.8
2023-01-05T01:07:32.422Z,8.7
2023-01-05T01:08:32.413Z,8.8
2023-01-05T01:09:32.432Z,8.8
2023-01-05T01:10:32.423Z,8.8
2023-01-05T01:11:32.420Z,8.9
2023-01-05T01:12:32.517Z,8.8
2023-01-05T01:13:32.443Z,8.7
2023-01-05T01:14:32.504Z,8.7
2023-01-05T01:15:32.419Z,8.7
2023-01-05T01:16:32.536Z,8.7
2023-01-05T01:17:32.417Z,8.9
2023-01-05T01:18:32.408Z,8.8
2023-01-05T01:19:32.421Z,8.8
2023-01-05T01:20:32.406Z,8.8
2023-01-05T01:21:32.471Z,8.8
2023-01-05T01:22:32.413Z,8.7
2023-01-05T01:23:32.416Z,8.8
2023-01-05T01:24:32.715Z,8.8
2023-01-05T01:25:32.409Z,8.7
2023-01-05T01:26:32.404Z,8.7
2023-01-05T01:27:32.403Z,8.7
2023-01-05T01:28:32.719Z,8.8
2023-01-05T01:29:32.423Z,8.8
2023-01-05T01:30:32.523Z,8.8
2023-01-05T01:31:32.411Z,8.8
2023-01-05T01:32:32.411Z,8.8
2023-01-05T01:33:32.399Z,8.8
2023-01-05T01:34:32.424Z,8.8
2023-01-05T01:35:32.478Z,8.8
2023-01-05T01:36:32.423Z,8.7
2023-01-05T01:37:32.424Z,8.7
2023-01-05T01:38:32.430Z,8.8
2023-01-05T01:39:32.413Z,8.7
2023-01-05T01:40:32.438Z,8.8
2023-01-05T01:41:32.419Z,8.8
2023-01-05T01:42:32.414Z,8.9
2023-01-05T01:43:32.403Z,8.7
2023-01-05T01:44:32.476Z,8.9
2023-01-05T01:45:32.491Z,8.9
2023-01-05T01:46:32.423Z,8.8
2023-01-05T01:47:32.409Z,8.8
2023-01-05T01:48:32.408Z,9
2023-01-05T01:49:32.457Z,8.9
2023-01-05T01:50:32.546Z,9
2023-01-05T01:51:32.413Z,8.9
2023-01-05T01:52:32.408Z,9
2023-01-05T01:53:32.427Z,8.9
2023-01-05T01:54:32.410Z,8.9
2023-01-05T01:55:32.421Z,8.9
2023-01-05T01:56:32.423Z,8.9
2023-01-05T01:57:32.404Z,8.9
2023-01-05T01:58:32.432Z,9
2023-01-05T01:59:32.429Z,8.9
2023-01-05T02:00:32.413Z,9
2023-01-05T02:01:32.625Z,9
2023-01-05T02:02:32.538Z,8.9
2023-01-05T02:03:32.474Z,9
2023-01-05T02:04:32.534Z,9
2023-01-05T02:05:32.413Z,9.1
2023-01-05T03:01:15.969Z,8.8
2023-01-05T03:13:00.452Z,8.7
2023-01-05T03:52:32.692Z,8.9
2023-01-05T04:03:40.781Z,8.9
2023-01-05T04:06:09.003Z,8.8
2023-01-05T04:11:05.519Z,8.8
2023-01-05T04:16:02.089Z,8.9
2023-01-05T04:23:26.907Z,8.9
2023-01-05T04:25:55.167Z,8.9
2023-01-05T04:30:51.851Z,8.7
2023-01-05T04:43:13.118Z,8.7
2023-01-05T04:45:41.383Z,8.7
2023-01-05T04:50:37.946Z,8.7
2023-01-05T04:53:06.217Z,8.7
2023-01-05T05:02:59.504Z,8.7
2023-01-05T05:05:27.596Z,8.8
2023-01-05T05:12:52.404Z,8.8
2023-01-05T05:22:45.568Z,8.6
2023-01-05T05:25:13.793Z,8.7
2023-01-05T05:30:10.343Z,8.8
2023-01-05T05:42:31.753Z,8.8
2023-01-05T05:45:00.007Z,8.8
2023-01-05T05:49:56.547Z,8.9
2023-01-05T05:52:24.856Z,8.8
2023-01-05T06:02:18.007Z,9
2023-01-05T06:04:46.213Z,9
2023-01-05T06:09:42.783Z,8.8
2023-01-05T06:22:04.170Z,9.1
2023-01-05T06:24:32.428Z,9.1
2023-01-05T06:29:28.967Z,9.1
2023-01-05T06:31:57.278Z,9.1
2023-01-05T06:41:50.363Z,9.2
2023-01-05T06:44:18.657Z,9.1
2023-01-05T06:49:15.189Z,9.1
2023-01-05T07:04:04.853Z,9.2
2023-01-05T07:09:01.456Z,9.2
2023-01-05T07:11:29.672Z,9
2023-01-05T07:21:22.794Z,9.1
2023-01-05T07:23:51.067Z,9.1
2023-01-05T07:28:47.606Z,9.5
2023-01-05T07:41:08.985Z,9.1
2023-01-05T07:43:37.237Z,9.1
2023-01-05T07:48:33.815Z,9
2023-01-05T07:51:02.063Z,9.1
2023-01-05T07:53:30.346Z,9.1
2023-01-05T08:00:55.245Z,9.2
2023-01-05T08:03:23.486Z,9.2
2023-01-05T08:08:24.368Z,9.4
2023-01-05T08:10:48.268Z,9.5
2023-01-05T08:13:16.729Z,9.5
2023-01-05T08:20:41.406Z,9.6
2023-01-05T08:23:09.686Z,9.5
2023-01-05T08:28:06.230Z,9.5
2023-01-05T08:30:34.499Z,9.4
2023-01-05T08:40:28.009Z,9.5
2023-01-05T08:42:55.872Z,9.4
2023-01-05T08:47:52.422Z,9.3
2023-01-05T08:50:20.684Z,9.3
2023-01-05T08:52:48.983Z,9.4
2023-01-05T08:57:45.543Z,9.2
2023-01-05T09:00:13.813Z,9.3
2023-01-05T09:02:42.305Z,8.9
2023-01-05T09:07:38.651Z,9.2
2023-01-05T09:20:00.042Z,9.2
2023-01-05T09:22:28.287Z,9.3
2023-01-05T09:27:24.834Z,9.3
2023-01-05T09:29:53.098Z,9.1
2023-01-05T09:32:21.388Z,9.2
2023-01-05T09:37:18.088Z,9.3
2023-01-05T09:39:46.222Z,9.3
2023-01-05T09:42:14.754Z,9.2
2023-01-05T09:47:11.249Z,9.3
2023-01-05T09:49:39.358Z,9.2
2023-01-05T09:59:32.561Z,9.2
2023-01-05T10:02:00.751Z,9.2
2023-01-05T10:06:57.262Z,9.3
2023-01-05T10:16:57.666Z,9.4
2023-01-05T10:19:18.633Z,9.4
2023-01-05T10:21:46.913Z,9.2
2023-01-05T10:27:14.484Z,9.3
2023-01-05T10:29:11.769Z,9.1
2023-01-05T10:41:33.232Z,9
2023-01-05T10:46:37.858Z,9
2023-01-05T10:48:58.036Z,8.9
2023-01-05T10:58:51.171Z,9.1
2023-01-05T11:01:19.459Z,9
2023-01-05T11:06:16.023Z,8.9
2023-01-05T11:08:44.148Z,8.8
2023-01-05T11:11:12.429Z,8.8
2023-01-05T11:18:37.374Z,8.7
2023-01-05T11:21:05.545Z,8.7
2023-01-05T11:26:02.106Z,8.5
2023-01-05T11:29:38.953Z,8.4
2023-01-05T11:29:57.492Z,8.5
2023-01-05T11:30:55.142Z,8.6
2023-01-05T11:38:21.780Z,8.5
2023-01-05T11:39:17.400Z,8.5
2023-01-05T11:40:15.002Z,8.4
2023-01-05T11:40:51.991Z,8.5
2023-01-05T11:42:08.160Z,8.6
2023-01-05T11:42:45.212Z,8.4
2023-01-05T11:43:59.301Z,8.6
2023-01-05T11:45:13.408Z,8.4
2023-01-05T11:45:50.447Z,8.5
2023-01-05T11:46:29.634Z,8.2
2023-01-05T11:47:06.612Z,8.3
2023-01-05T11:47:44.706Z,8.6
2023-01-05T11:48:20.718Z,8.3
2023-01-05T11:48:39.224Z,8.7
2023-01-05T11:49:16.296Z,8.3
2023-01-05T11:49:34.816Z,8.7
2023-01-05T11:50:11.868Z,8.3
2023-01-05T11:50:30.385Z,8.8
2023-01-05T11:51:07.443Z,8.2
2023-01-05T11:51:27.872Z,8.8
2023-01-05T11:52:03.030Z,8.2
2023-01-05T11:52:23.585Z,8.8
2023-01-05T11:53:17.116Z,8.2
2023-01-05T11:54:16.771Z,8.1
2023-01-05T11:54:53.835Z,8.2
2023-01-05T11:55:32.438Z,8.2
2023-01-05T11:56:32.455Z,8
2023-01-05T11:57:32.452Z,8
2023-01-05T11:58:32.452Z,7.8
2023-01-05T11:59:32.454Z,7.8
2023-01-05T12:00:32.497Z,7.9
2023-01-05T12:01:32.499Z,8
2023-01-05T12:02:32.637Z,8
2023-01-05T12:03:32.508Z,8.1
2023-01-05T12:04:32.528Z,8
2023-01-05T12:05:32.457Z,7.9
2023-01-05T12:06:32.474Z,7.9
2023-01-05T12:07:32.449Z,8
2023-01-05T12:08:32.449Z,8
2023-01-05T12:09:35.013Z,8
2023-01-05T12:10:32.458Z,8
2023-01-05T12:11:32.460Z,8
2023-01-05T12:12:32.482Z,8
2023-01-05T12:13:32.452Z,7.9
2023-01-05T12:14:32.449Z,7.9
2023-01-05T12:15:32.465Z,7.9
2023-01-05T12:16:32.570Z,7.8
2023-01-05T12:17:32.454Z,8
2023-01-05T12:18:32.449Z,8
2023-01-05T12:19:32.586Z,7.9
2023-01-05T12:20:32.448Z,7.9
2023-01-05T12:21:32.448Z,7.9
2023-01-05T12:22:32.455Z,7.7
2023-01-05T12:23:32.463Z,7.8
2023-01-05T12:24:32.488Z,7.8
2023-01-05T12:25:32.457Z,7.8
2023-01-05T12:26:32.447Z,7.8
2023-01-05T12:27:32.478Z,8
2023-01-05T12:28:40.922Z,8
2023-01-05T12:31:06.467Z,7.9
2023-01-05T12:34:01.321Z,7.9
2023-01-05T12:34:32.450Z,7.9
2023-01-05T12:35:32.444Z,7.8
2023-01-05T12:36:32.478Z,7.9
2023-01-05T12:37:32.476Z,8
2023-01-05T12:38:32.443Z,8
2023-01-05T12:39:32.463Z,8.2
2023-01-05T12:40:32.447Z,8.3
2023-01-05T12:41:32.439Z,8.3
2023-01-05T12:42:32.440Z,8.3
2023-01-05T12:43:32.461Z,8.2
2023-01-05T12:44:32.460Z,8.3
2023-01-05T12:45:32.546Z,8.2
2023-01-05T12:46:32.499Z,8.1
2023-01-05T12:47:32.455Z,8.1
2023-01-05T12:48:32.460Z,8.2
2023-01-05T12:49:32.449Z,8.2
2023-01-05T12:50:32.596Z,8.3
2023-01-05T12:51:32.453Z,8
2023-01-05T12:52:43.521Z,7.9
2023-01-05T12:53:59.693Z,8
2023-01-05T12:54:36.710Z,8.1
2023-01-05T12:56:32.450Z,8.2
2023-01-05T12:57:32.459Z,8
2023-01-05T12:58:32.459Z,8
2023-01-05T12:59:32.451Z,8
2023-01-05T13:00:32.513Z,8.1
2023-01-05T13:01:32.666Z,7.8
2023-01-05T13:02:32.698Z,7.8
2023-01-05T13:03:32.608Z,7.9
2023-01-05T13:04:38.992Z,7.9
2023-01-05T13:05:32.456Z,7.8
2023-01-05T13:06:32.467Z,7.9
2023-01-05T13:07:32.449Z,8
2023-01-05T13:08:32.455Z,8
2023-01-05T13:09:32.466Z,7.9
2023-01-05T13:10:32.458Z,7.8
2023-01-05T13:11:32.606Z,7.9
2023-01-05T13:12:32.440Z,7.9
2023-01-05T13:13:32.457Z,7.9
2023-01-05T13:14:32.471Z,7.8
2023-01-05T13:15:36.328Z,8
2023-01-05T13:16:32.477Z,8
2023-01-05T13:17:32.456Z,8
2023-01-05T13:18:32.467Z,8
2023-01-05T13:19:32.477Z,8
2023-01-05T13:20:32.454Z,8
2023-01-05T13:21:32.569Z,7.9
2023-01-05T13:22:32.471Z,7.8
2023-01-05T13:23:32.452Z,7.9
2023-01-05T13:24:32.447Z,8
2023-01-05T13:25:32.474Z,8
2023-01-05T13:26:37.790Z,7.9
2023-01-05T13:27:32.450Z,7.9
2023-01-05T13:28:33.527Z,7.9
2023-01-05T13:29:32.457Z,7.9
2023-01-05T13:30:32.483Z,7.9
2023-01-05T13:31:32.479Z,7.9
2023-01-05T13:32:32.469Z,7.9
2023-01-05T13:33:32.496Z,7.9
2023-01-05T13:34:32.456Z,8
2023-01-05T13:35:32.463Z,7.9
2023-01-05T13:36:32.496Z,7.9
2023-01-05T13:37:32.589Z,8
2023-01-05T13:38:32.480Z,7.7
2023-01-05T13:39:32.471Z,7.8
2023-01-05T13:40:32.465Z,7.8
2023-01-05T13:41:32.476Z,7.8
2023-01-05T13:42:32.461Z,7.8
2023-01-05T13:43:32.483Z,7.9
2023-01-05T13:44:32.467Z,7.9
2023-01-05T13:45:32.436Z,8
2023-01-05T13:46:32.603Z,7.9
2023-01-05T13:47:35.314Z,8
2023-01-05T13:48:44.195Z,8
2023-01-05T13:49:32.461Z,7.9
2023-01-05T13:50:32.463Z,7.9
2023-01-05T13:51:32.464Z,7.9
2023-01-05T13:52:32.756Z,8.1
2023-01-05T13:53:32.452Z,7.9
2023-01-05T13:54:43.253Z,7.9
2023-01-05T13:55:32.457Z,7.9
2023-01-05T13:56:32.479Z,7.8
2023-01-05T13:57:32.474Z,7.8
2023-01-05T13:58:32.463Z,8
2023-01-05T13:59:42.266Z,7.9
2023-01-05T14:00:32.474Z,8
2023-01-05T14:01:32.530Z,8
2023-01-05T14:02:32.472Z,8.1
2023-01-05T14:03:32.467Z,8
2023-01-05T14:04:33.138Z,8
2023-01-05T14:05:32.462Z,8.1
2023-01-05T14:06:32.457Z,8.1
2023-01-05T14:07:32.508Z,8.2
2023-01-05T14:08:32.607Z,8.2
2023-01-05T14:09:32.467Z,8.2
2023-01-05T14:10:32.457Z,8.1
2023-01-05T14:11:32.479Z,8.1
2023-01-05T14:12:32.525Z,8.1
2023-01-05T14:13:32.460Z,8.1
2023-01-05T14:14:32.470Z,8.1
2023-01-05T14:15:32.470Z,8.2
2023-01-05T14:16:32.511Z,8.3
2023-01-05T14:17:32.465Z,8.2
2023-01-05T14:18:32.449Z,8.2
2023-01-05T14:19:32.458Z,8.1
2023-01-05T14:20:32.475Z,8.1
2023-01-05T14:21:32.468Z,8.1
2023-01-05T14:22:32.466Z,8.2
2023-01-05T14:23:32.448Z,8.2
2023-01-05T14:24:32.509Z,8.2
2023-01-05T14:25:32.481Z,8.2
2023-01-05T14:26:32.472Z,8.2
2023-01-05T14:27:32.461Z,8.3
2023-01-05T14:28:32.524Z,8.2
2023-01-05T14:29:32.480Z,8.2
2023-01-05T14:30:32.474Z,8.2
2023-01-05T14:31:32.520Z,8.2
2023-01-05T14:32:32.471Z,8.2
2023-01-05T14:33:32.471Z,8.1
2023-01-05T14:34:32.475Z,8.1
2023-01-05T14:35:32.749Z,8
2023-01-05T14:36:32.461Z,8.1
2023-01-05T14:37:32.491Z,8.2
2023-01-05T14:38:32.469Z,8.1
2023-01-05T14:39:32.586Z,8.1
2023-01-05T14:40:32.467Z,8.1
2023-01-05T14:41:32.470Z,8
2023-01-05T14:42:32.466Z,8.1
2023-01-05T14:43:32.470Z,8.2
2023-01-05T14:44:32.465Z,8.2
2023-01-05T14:45:32.516Z,8.1
2023-01-05T14:46:32.491Z,8.1
2023-01-05T14:47:32.479Z,8.1
2023-01-05T14:48:32.473Z,8.1
2023-01-05T14:49:32.467Z,8.1
2023-01-05T14:50:32.465Z,8
2023-01-05T14:51:32.528Z,8.1
2023-01-05T14:52:32.478Z,8
2023-01-05T14:53:32.480Z,7.9
2023-01-05T14:54:32.469Z,8
2023-01-05T14:55:38.623Z,8.1
2023-01-05T14:56:32.459Z,8
2023-01-05T14:57:32.462Z,8.1
2023-01-05T14:58:32.465Z,8
2023-01-05T14:59:32.484Z,8
2023-01-05T15:00:32.458Z,8
2023-01-05T15:01:32.546Z,8.1
2023-01-05T15:02:32.474Z,8
2023-01-05T15:03:33.561Z,8
2023-01-05T15:04:32.465Z,8
2023-01-05T15:05:32.466Z,8
2023-01-05T15:06:32.496Z,8.1
2023-01-05T15:07:32.565Z,8
2023-01-05T15:08:33.411Z,8
2023-01-05T15:09:32.454Z,8
2023-01-05T15:10:32.605Z,8
2023-01-05T15:11:32.455Z,8
2023-01-05T15:12:32.470Z,8
2023-01-05T15:13:42.485Z,8
2023-01-05T15:14:32.482Z,8.1
2023-01-05T15:15:32.686Z,8.1
2023-01-05T15:16:32.478Z,8.1
2023-01-05T15:17:32.471Z,8.1
2023-01-05T15:18:32.486Z,8.1
2023-01-05T15:19:32.467Z,8.2
2023-01-05T15:20:32.484Z,8.1
2023-01-05T15:21:32.466Z,8.2
2023-01-05T15:22:38.220Z,8.2
2023-01-05T15:23:32.452Z,8.2
2023-01-05T15:24:32.457Z,8.2
2023-01-05T15:25:32.475Z,8.3
2023-01-05T15:26:32.496Z,8.3
2023-01-05T15:27:32.530Z,8.3
2023-01-05T15:28:32.484Z,8.3
2023-01-05T15:29:32.483Z,8.4
2023-01-05T15:30:32.480Z,8.4
2023-01-05T15:31:32.463Z,8.4
2023-01-05T15:32:32.501Z,8.4
2023-01-05T15:33:32.472Z,8.5
2023-01-05T15:34:32.469Z,8.5
2023-01-05T15:35:32.525Z,8.5
2023-01-05T15:36:32.464Z,8.4
2023-01-05T15:37:32.510Z,8.5
2023-01-05T15:38:32.739Z,8.6
2023-01-05T15:39:32.510Z,8.6
2023-01-05T15:40:32.467Z,8.7
2023-01-05T15:41:32.585Z,8.7
2023-01-05T15:42:32.471Z,8.7
2023-01-05T15:43:32.463Z,8.6
2023-01-05T15:44:32.466Z,8.6
2023-01-05T15:45:32.540Z,8.7
2023-01-05T15:46:32.485Z,8.7
2023-01-05T15:47:32.459Z,8.7
2023-01-05T15:48:32.470Z,8.7
2023-01-05T15:49:32.477Z,8.7
2023-01-05T15:50:32.467Z,8.7
2023-01-05T15:51:32.477Z,8.7
2023-01-05T15:52:32.670Z,8.7
2023-01-05T15:53:32.467Z,8.8
2023-01-05T15:54:32.474Z,8.9
2023-01-05T15:55:32.460Z,9
2023-01-05T15:56:32.482Z,9
2023-01-05T15:57:32.473Z,9
2023-01-05T15:58:32.465Z,9
2023-01-05T15:59:32.477Z,8.9
2023-01-05T16:00:32.483Z,8.9
2023-01-05T16:01:32.509Z,8.9
2023-01-05T16:02:32.632Z,8.8
2023-01-05T16:03:32.481Z,8.9
2023-01-05T16:04:32.482Z,8.9
2023-01-05T16:05:32.466Z,8.8
2023-01-05T16:06:32.472Z,8.8
2023-01-05T16:07:32.495Z,8.9
2023-01-05T16:08:32.465Z,8.8
2023-01-05T16:09:32.457Z,8.9
2023-01-05T16:10:32.472Z,8.9
2023-01-05T16:11:32.472Z,8.8
2023-01-05T16:12:32.587Z,8.8
2023-01-05T16:13:48.005Z,8.8
2023-01-05T16:14:32.463Z,8.7
2023-01-05T16:15:32.481Z,8.8
2023-01-05T16:16:53.378Z,8.8
2023-01-05T16:17:32.517Z,8.8
2023-01-05T16:18:32.464Z,8.8
2023-01-05T16:19:32.467Z,8.9
2023-01-05T16:20:32.490Z,9
2023-01-05T16:21:32.487Z,8.9
2023-01-05T16:22:32.490Z,8.9
2023-01-05T16:23:48.623Z,9
2023-01-05T16:24:32.476Z,9.1
2023-01-05T16:25:32.473Z,9
2023-01-05T16:26:32.469Z,9
2023-01-05T16:27:32.467Z,9
2023-01-05T16:28:32.458Z,9.1
2023-01-05T16:29:32.474Z,9.2
2023-01-05T16:30:32.594Z,9.3
2023-01-05T16:31:32.497Z,9.4
2023-01-05T16:32:32.476Z,9.5
2023-01-05T16:33:32.475Z,9.5
2023-01-05T16:34:32.471Z,9.6
2023-01-05T16:35:32.518Z,9.7
2023-01-05T16:36:32.469Z,9.7
2023-01-05T16:37:32.512Z,9.8
2023-01-05T16:38:32.482Z,9.9
2023-01-05T16:39:32.470Z,9.9
2023-01-05T16:40:32.511Z,10.1
2023-01-05T16:41:32.464Z,10.1
2023-01-05T16:42:32.473Z,10.1
2023-01-05T16:43:32.607Z,10.1
2023-01-05T16:44:32.476Z,10.2
2023-01-05T16:45:32.457Z,10.3
2023-01-05T16:46:32.487Z,10.4
2023-01-05T16:47:32.468Z,10.5
2023-01-05T16:48:32.459Z,10.4
2023-01-05T16:49:32.474Z,10.4
2023-01-05T16:50:32.463Z,10.5
2023-01-05T16:51:32.482Z,10.6
2023-01-05T16:52:46.012Z,10.6
2023-01-05T16:53:32.475Z,10.6
2023-01-05T16:54:32.466Z,10.7
2023-01-05T16:55:32.460Z,10.8
2023-01-05T16:56:32.477Z,10.8
2023-01-05T16:57:32.459Z,10.8
2023-01-05T16:58:32.468Z,10.8
2023-01-05T16:59:32.493Z,10.8
2023-01-05T17:00:32.460Z,10.9
2023-01-05T17:01:32.532Z,10.9
2023-01-05T17:02:32.480Z,11
2023-01-05T17:03:32.475Z,11
2023-01-05T17:04:32.512Z,11
2023-01-05T17:05:32.467Z,11
2023-01-05T17:06:32.481Z,11
2023-01-05T17:07:32.495Z,11
2023-01-05T17:08:32.468Z,11
2023-01-05T17:09:32.451Z,11
2023-01-05T17:10:32.480Z,11
2023-01-05T17:11:32.539Z,11
2023-01-05T17:12:32.487Z,11
2023-01-05T17:13:54.002Z,11
2023-01-05T17:15:32.473Z,10.9
2023-01-05T17:16:32.490Z,10.9
2023-01-05T17:17:32.472Z,10.9
2023-01-05T17:18:32.470Z,10.9
2023-01-05T17:19:32.477Z,10.9
2023-01-05T17:20:32.477Z,10.9
2023-01-05T17:21:32.501Z,10.9
2023-01-05T17:22:32.499Z,10.9
2023-01-05T17:23:32.496Z,10.9
2023-01-05T17:24:32.619Z,10.9
2023-01-05T17:25:32.488Z,10.9
2023-01-05T17:26:32.469Z,10.9
2023-01-05T17:27:32.469Z,10.9
2023-01-05T17:28:32.729Z,10.8
2023-01-05T17:29:32.494Z,10.8
2023-01-05T17:30:32.518Z,10.8
2023-01-05T17:31:32.486Z,10.8
2023-01-05T17:32:32.477Z,10.9
2023-01-05T17:33:32.479Z,10.8
2023-01-05T17:34:32.493Z,10.9
2023-01-05T17:35:32.482Z,10.8
2023-01-05T17:36:32.918Z,10.9
2023-01-05T17:37:32.504Z,10.8
2023-01-05T17:38:32.507Z,10.8
2023-01-05T17:40:32.479Z,10.8
2023-01-05T17:41:32.474Z,10.8
2023-01-05T17:43:32.554Z,10.8
2023-01-05T17:44:32.489Z,10.8
2023-01-05T17:45:32.493Z,10.8
2023-01-05T17:46:32.485Z,10.8
2023-01-05T17:47:32.480Z,10.8
2023-01-05T17:48:32.471Z,10.8
2023-01-05T17:49:32.495Z,10.8
2023-01-05T17:51:32.480Z,10.7
2023-01-05T17:52:32.476Z,10.8
2023-01-05T17:53:32.477Z,10.7
2023-01-05T17:54:32.487Z,10.7
2023-01-05T17:55:32.485Z,10.7
2023-01-05T17:57:32.489Z,10.7
2023-01-05T17:58:32.514Z,10.8
2023-01-05T17:59:32.511Z,10.7
2023-01-05T18:00:32.475Z,10.7
2023-01-05T18:01:32.619Z,10.7
2023-01-05T18:02:32.593Z,10.7
2023-01-05T18:03:32.467Z,10.7
2023-01-05T18:04:32.619Z,10.7
2023-01-05T18:05:32.473Z,10.7
2023-01-05T18:06:32.485Z,10.7
2023-01-05T18:07:32.506Z,10.7
2023-01-05T18:08:32.492Z,10.7
2023-01-05T18:09:32.480Z,10.7
2023-01-05T18:10:32.474Z,10.7
2023-01-05T18:11:32.487Z,10.7
2023-01-05T18:12:32.500Z,10.7
2023-01-05T18:15:32.483Z,10.7
2023-01-05T18:16:32.468Z,10.7
2023-01-05T18:17:32.503Z,10.7
2023-01-05T18:19:33.535Z,10.7
2023-01-05T18:20:32.485Z,10.7
2023-01-05T18:22:32.650Z,10.7
2023-01-05T18:23:32.497Z,10.7
2023-01-05T18:24:32.487Z,10.7
2023-01-05T18:25:32.480Z,10.7
2023-01-05T18:26:32.472Z,10.7
2023-01-05T18:27:32.495Z,10.6
2023-01-05T18:28:32.476Z,10.7
2023-01-05T18:29:32.499Z,10.7
2023-01-05T18:30:32.518Z,10.7
2023-01-05T18:32:32.602Z,10.6
2023-01-05T18:33:32.478Z,10.6
2023-01-05T18:34:32.488Z,10.6
2023-01-05T18:35:32.982Z,10.7
2023-01-05T18:36:32.479Z,10.7
2023-01-05T18:37:32.512Z,10.7
2023-01-05T18:38:32.482Z,10.7
2023-01-05T18:39:32.467Z,10.7
2023-01-05T18:40:32.556Z,10.7
2023-01-05T18:41:32.500Z,10.6
2023-01-05T18:42:32.480Z,10.6
2023-01-05T18:43:32.476Z,10.6
2023-01-05T18:44:32.482Z,10.6
2023-01-05T18:45:39.177Z,10.6
2023-01-05T18:46:32.625Z,10.6
2023-01-05T18:47:32.466Z,10.6
2023-01-05T18:48:32.496Z,10.6
2023-01-05T18:49:32.485Z,10.6
2023-01-05T18:50:32.495Z,10.6
2023-01-05T18:51:32.479Z,10.6
2023-01-05T18:52:32.483Z,10.6
2023-01-05T18:53:32.479Z,10.6
2023-01-05T18:54:32.490Z,10.6
2023-01-05T18:55:32.485Z,10.6
2023-01-05T18:56:32.572Z,10.6
2023-01-05T18:57:32.485Z,10.6
2023-01-05T18:58:32.489Z,10.6
2023-01-05T18:59:32.471Z,10.6
2023-01-05T19:00:32.472Z,10.6
2023-01-05T19:01:32.555Z,10.6
2023-01-05T19:02:32.487Z,10.6
2023-01-05T19:03:32.598Z,10.6
2023-01-05T19:04:32.540Z,10.6
2023-01-05T19:05:32.495Z,10.6
2023-01-05T19:06:32.481Z,10.6
2023-01-05T19:07:32.495Z,10.6
2023-01-05T19:08:32.488Z,10.6
2023-01-05T19:09:32.490Z,10.6
2023-01-05T19:10:32.468Z,10.6
2023-01-05T19:11:32.494Z,10.6
2023-01-05T19:12:32.494Z,10.6
2023-01-05T19:13:32.500Z,10.6
2023-01-05T19:14:32.489Z,10.7
2023-01-05T19:15:32.471Z,10.7
2023-01-05T19:16:32.521Z,10.6
2023-01-05T19:17:32.489Z,10.6
2023-01-05T19:18:32.469Z,10.6
2023-01-05T19:19:32.487Z,10.6
2023-01-05T19:20:32.489Z,10.6
2023-01-05T19:21:32.505Z,10.6
2023-01-05T19:22:32.491Z,10.6
2023-01-05T19:23:32.497Z,10.6
2023-01-05T19:24:50.856Z,10.6
2023-01-05T19:25:32.481Z,10.6
2023-01-05T19:26:32.486Z,10.7
2023-01-05T19:27:32.475Z,10.6
2023-01-05T19:28:32.481Z,10.6
2023-01-05T19:29:32.488Z,10.7
2023-01-05T19:30:32.495Z,10.6
2023-01-05T19:31:32.493Z,10.7
2023-01-05T19:32:32.467Z,10.7
2023-01-05T19:33:32.474Z,10.7
2023-01-05T19:34:32.606Z,10.7
2023-01-05T19:36:32.569Z,10.7
2023-01-05T19:37:32.474Z,10.7
2023-01-05T19:38:32.489Z,10.7
2023-01-05T19:39:32.505Z,10.6
2023-01-05T19:40:32.533Z,10.6
2023-01-05T19:41:32.475Z,10.6
2023-01-05T19:42:32.489Z,10.6
2023-01-05T19:43:32.487Z,10.6
2023-01-05T19:44:32.487Z,10.6
2023-01-05T19:45:32.485Z,10.7
2023-01-05T19:46:32.560Z,10.7
2023-01-05T19:47:32.489Z,10.6
2023-01-05T19:48:32.494Z,10.6
2023-01-05T19:49:32.474Z,10.6
2023-01-05T19:50:32.556Z,10.6
2023-01-05T19:51:32.496Z,10.7
2023-01-05T19:52:32.501Z,10.7
2023-01-05T19:53:32.483Z,10.6
2023-01-05T19:54:32.492Z,10.6
2023-01-05T19:55:32.475Z,10.6
2023-01-05T19:56:32.490Z,10.6
2023-01-05T19:57:32.483Z,10.6
2023-01-05T19:58:32.478Z,10.6
2023-01-05T19:59:32.467Z,10.6
2023-01-05T20:00:32.476Z,10.6
2023-01-05T20:01:32.609Z,10.5
2023-01-05T20:02:32.552Z,10.6
2023-01-05T20:03:32.475Z,10.6
2023-01-05T20:04:32.474Z,10.6
2023-01-05T20:05:32.637Z,10.6
2023-01-05T20:06:32.471Z,10.6
2023-01-05T20:07:32.483Z,10.7
2023-01-05T20:08:32.482Z,10.7
2023-01-05T20:09:32.483Z,10.7
2023-01-05T20:10:32.482Z,10.6
2023-01-05T20:11:32.492Z,10.6
2023-01-05T20:12:32.494Z,10.6
2023-01-05T20:13:32.500Z,10.6
2023-01-05T20:14:32.472Z,10.6
2023-01-05T20:15:32.480Z,10.6
2023-01-05T20:16:32.496Z,10.7
2023-01-05T20:17:32.508Z,10.6
2023-01-05T20:19:32.495Z,10.7
2023-01-05T20:20:32.493Z,10.7
2023-01-05T20:21:32.504Z,10.7
2023-01-05T20:22:32.542Z,10.7
2023-01-05T20:23:32.490Z,10.8
2023-01-05T20:24:32.476Z,10.8
2023-01-05T20:25:32.488Z,10.8
2023-01-05T20:26:32.520Z,10.7
2023-01-05T20:27:32.471Z,10.7
2023-01-05T20:28:32.485Z,10.7
2023-01-05T20:29:32.484Z,10.8
2023-01-05T20:30:32.488Z,10.8
2023-01-05T20:31:32.583Z,10.8
2023-01-05T20:32:32.497Z,10.8
2023-01-05T20:33:32.463Z,10.8
2023-01-05T20:34:42.481Z,10.8
2023-01-05T20:35:32.507Z,10.8
2023-01-05T20:36:32.591Z,10.8
2023-01-05T20:37:32.528Z,10.8
2023-01-05T20:38:32.469Z,10.8
2023-01-05T20:39:32.504Z,10.8
2023-01-05T20:40:32.498Z,10.8
2023-01-05T20:41:32.477Z,10.8
2023-01-05T20:42:32.482Z,10.8
2023-01-05T20:43:32.502Z,10.8
2023-01-05T20:44:32.522Z,10.8
2023-01-05T20:45:32.466Z,10.8
2023-01-05T20:46:32.528Z,10.7
2023-01-05T20:47:43.092Z,10.8
2023-01-05T20:48:32.478Z,10.8
2023-01-05T20:49:32.487Z,10.8
2023-01-05T20:50:32.485Z,10.9
2023-01-05T20:51:32.481Z,10.9
2023-01-05T20:52:32.487Z,10.9
2023-01-05T20:53:32.477Z,10.9
2023-01-05T20:54:32.479Z,10.9
2023-01-05T20:55:32.486Z,10.8
2023-01-05T20:56:32.531Z,10.8
2023-01-05T20:57:32.479Z,10.8
2023-01-05T20:58:32.484Z,10.8
2023-01-05T20:59:32.567Z,10.8
2023-01-05T21:00:32.551Z,10.8
2023-01-05T21:01:32.581Z,10.8
2023-01-05T21:02:32.574Z,10.9
2023-01-05T21:03:32.479Z,10.9
2023-01-05T21:04:32.484Z,10.9
2023-01-05T21:05:32.483Z,10.9
2023-01-05T21:06:32.475Z,10.9
2023-01-05T21:07:32.628Z,10.9
2023-01-05T21:08:32.496Z,10.9
2023-01-05T21:09:32.618Z,10.9
2023-01-05T21:10:32.465Z,10.9
2023-01-05T21:11:32.499Z,10.9
2023-01-05T21:13:33.195Z,10.9
2023-01-05T21:14:32.510Z,10.9
2023-01-05T21:15:32.492Z,10.9
2023-01-05T21:16:32.563Z,11
2023-01-05T21:17:32.499Z,11
2023-01-05T21:18:32.494Z,10.9
2023-01-05T21:19:32.473Z,10.9
2023-01-05T21:20:32.482Z,10.9
2023-01-05T21:21:32.485Z,10.9
2023-01-05T21:22:32.481Z,10.9
2023-01-05T21:23:32.480Z,10.9
2023-01-05T21:24:32.468Z,10.9
2023-01-05T21:26:06.122Z,10.9
2023-01-05T21:26:32.482Z,11
2023-01-05T21:27:32.483Z,10.9
2023-01-05T21:28:32.481Z,11
2023-01-05T21:29:32.491Z,11
2023-01-05T21:30:32.509Z,11
2023-01-05T21:31:32.504Z,10.9
2023-01-05T21:32:32.484Z,10.9
2023-01-05T21:33:32.491Z,11
2023-01-05T21:34:47.965Z,11
2023-01-05T21:35:32.483Z,11
2023-01-05T21:36:32.489Z,11
2023-01-05T21:37:32.487Z,11
2023-01-05T21:39:00.288Z,11
2023-01-05T21:39:32.557Z,11
2023-01-05T21:40:32.540Z,11
2023-01-05T21:41:32.490Z,11
2023-01-05T21:42:32.487Z,11
2023-01-05T21:43:32.499Z,11
2023-01-05T21:44:32.482Z,11
2023-01-05T21:45:32.547Z,11
2023-01-05T21:46:32.487Z,11
2023-01-05T21:47:32.505Z,11
2023-01-05T21:48:32.519Z,11
2023-01-05T21:49:32.488Z,11
2023-01-05T21:50:32.487Z,11
2023-01-05T21:51:32.486Z,11
2023-01-05T21:52:32.496Z,11